sensor_id;sensor_type;location;lat;lon;timestamp;temperature;humidity
26707;DHT22;14319;49.422;10.934;2023-05-20T00:00:51;14.50;74.60
26707;DHT22;14319;49.422;10.934;2023-05-20T00:02:52;14.60;74.30
26707;DHT22;14319;49.422;10.934;2023-05-20T00:04:53;14.50;75.00
26707;DHT22;14319;49.422;10.934;2023-05-20T00:06:53;14.50;75.10
26707;DHT22;14319;49.422;10.934;2023-05-20T00:08:54;14.50;74.80
26707;DHT22;14319;49.422;10.934;2023-05-20T00:10:55;14.60;74.80
26707;DHT22;14319;49.422;10.934;2023-05-20T00:12:55;14.60;75.00
26707;DHT22;14319;49.422;10.934;2023-05-20T00:14:56;14.60;74.90
26707;DHT22;14319;49.422;10.934;2023-05-20T00:16:57;14.60;74.90
26707;DHT22;14319;49.422;10.934;2023-05-20T00:18:57;14.60;74.90
26707;DHT22;14319;49.422;10.934;2023-05-20T00:20:58;14.50;75.60
26707;DHT22;14319;49.422;10.934;2023-05-20T00:22:58;14.60;75.70
26707;DHT22;14319;49.422;10.934;2023-05-20T00:24:59;14.60;75.00
26707;DHT22;14319;49.422;10.934;2023-05-20T00:27:00;14.70;75.10
26707;DHT22;14319;49.422;10.934;2023-05-20T00:29:02;14.60;75.70
26707;DHT22;14319;49.422;10.934;2023-05-20T00:31:02;14.60;75.50
26707;DHT22;14319;49.422;10.934;2023-05-20T00:33:04;14.50;75.50
26707;DHT22;14319;49.422;10.934;2023-05-20T00:35:05;14.50;75.80
26707;DHT22;14319;49.422;10.934;2023-05-20T00:37:05;14.50;76.00
26707;DHT22;14319;49.422;10.934;2023-05-20T00:39:06;14.50;75.80
26707;DHT22;14319;49.422;10.934;2023-05-20T00:41:06;14.60;75.80
26707;DHT22;14319;49.422;10.934;2023-05-20T00:43:08;14.50;76.30
26707;DHT22;14319;49.422;10.934;2023-05-20T00:45:09;14.60;76.50
26707;DHT22;14319;49.422;10.934;2023-05-20T00:47:10;14.60;76.30
26707;DHT22;14319;49.422;10.934;2023-05-20T00:49:10;14.60;76.30
26707;DHT22;14319;49.422;10.934;2023-05-20T00:51:12;14.60;75.80
26707;DHT22;14319;49.422;10.934;2023-05-20T00:53:18;14.60;75.70
26707;DHT22;14319;49.422;10.934;2023-05-20T00:55:19;14.60;77.00
26707;DHT22;14319;49.422;10.934;2023-05-20T00:57:20;14.70;76.90
26707;DHT22;14319;49.422;10.934;2023-05-20T00:59:21;14.70;76.10
26707;DHT22;14319;49.422;10.934;2023-05-20T01:01:21;14.70;76.10
26707;DHT22;14319;49.422;10.934;2023-05-20T01:03:22;14.70;76.00
26707;DHT22;14319;49.422;10.934;2023-05-20T01:05:23;14.70;76.00
26707;DHT22;14319;49.422;10.934;2023-05-20T01:07:24;14.60;76.60
26707;DHT22;14319;49.422;10.934;2023-05-20T01:09:25;14.60;76.80
26707;DHT22;14319;49.422;10.934;2023-05-20T01:11:33;14.60;76.80
26707;DHT22;14319;49.422;10.934;2023-05-20T01:13:42;14.60;76.80
26707;DHT22;14319;49.422;10.934;2023-05-20T01:15:44;14.60;76.80
26707;DHT22;14319;49.422;10.934;2023-05-20T01:17:46;14.50;76.90
26707;DHT22;14319;49.422;10.934;2023-05-20T01:19:49;14.60;76.80
26707;DHT22;14319;49.422;10.934;2023-05-20T01:21:51;14.50;77.20
26707;DHT22;14319;49.422;10.934;2023-05-20T01:23:52;14.60;77.00
26707;DHT22;14319;49.422;10.934;2023-05-20T01:25:53;14.70;76.70
26707;DHT22;14319;49.422;10.934;2023-05-20T01:27:55;14.60;76.60
26707;DHT22;14319;49.422;10.934;2023-05-20T01:29:57;14.70;76.80
26707;DHT22;14319;49.422;10.934;2023-05-20T01:31:59;14.70;76.90
26707;DHT22;14319;49.422;10.934;2023-05-20T01:34:01;14.50;77.20
26707;DHT22;14319;49.422;10.934;2023-05-20T01:36:03;14.60;77.00
26707;DHT22;14319;49.422;10.934;2023-05-20T01:38:05;14.60;77.30
26707;DHT22;14319;49.422;10.934;2023-05-20T01:40:07;14.60;76.90
26707;DHT22;14319;49.422;10.934;2023-05-20T01:42:09;14.60;77.10
26707;DHT22;14319;49.422;10.934;2023-05-20T01:44:10;14.70;77.20
26707;DHT22;14319;49.422;10.934;2023-05-20T01:46:11;14.70;77.10
26707;DHT22;14319;49.422;10.934;2023-05-20T01:48:13;14.70;77.20
26707;DHT22;14319;49.422;10.934;2023-05-20T01:50:14;14.70;77.00
26707;DHT22;14319;49.422;10.934;2023-05-20T01:52:15;14.60;77.80
26707;DHT22;14319;49.422;10.934;2023-05-20T01:54:16;14.60;77.40
26707;DHT22;14319;49.422;10.934;2023-05-20T01:56:16;14.70;77.40
26707;DHT22;14319;49.422;10.934;2023-05-20T01:58:17;14.70;76.70
26707;DHT22;14319;49.422;10.934;2023-05-20T02:00:18;14.60;77.50
26707;DHT22;14319;49.422;10.934;2023-05-20T02:02:18;14.60;78.00
26707;DHT22;14319;49.422;10.934;2023-05-20T02:04:19;14.60;77.40
26707;DHT22;14319;49.422;10.934;2023-05-20T02:06:21;14.60;77.90
26707;DHT22;14319;49.422;10.934;2023-05-20T02:08:22;14.50;78.00
26707;DHT22;14319;49.422;10.934;2023-05-20T02:10:22;14.50;77.90
26707;DHT22;14319;49.422;10.934;2023-05-20T02:12:23;14.50;77.80
26707;DHT22;14319;49.422;10.934;2023-05-20T02:14:24;14.50;78.10
26707;DHT22;14319;49.422;10.934;2023-05-20T02:16:24;14.60;77.80
26707;DHT22;14319;49.422;10.934;2023-05-20T02:18:25;14.60;77.60
26707;DHT22;14319;49.422;10.934;2023-05-20T02:20:26;14.60;77.70
26707;DHT22;14319;49.422;10.934;2023-05-20T02:22:27;14.60;77.50
26707;DHT22;14319;49.422;10.934;2023-05-20T02:24:28;14.50;77.70
26707;DHT22;14319;49.422;10.934;2023-05-20T02:26:28;14.50;77.70
26707;DHT22;14319;49.422;10.934;2023-05-20T02:28:29;14.40;77.70
26707;DHT22;14319;49.422;10.934;2023-05-20T02:30:30;14.30;78.50
26707;DHT22;14319;49.422;10.934;2023-05-20T02:32:30;14.30;78.70
26707;DHT22;14319;49.422;10.934;2023-05-20T02:34:33;14.20;78.90
26707;DHT22;14319;49.422;10.934;2023-05-20T02:36:34;14.20;78.90
26707;DHT22;14319;49.422;10.934;2023-05-20T02:38:35;14.20;79.10
26707;DHT22;14319;49.422;10.934;2023-05-20T02:40:36;14.20;79.20
26707;DHT22;14319;49.422;10.934;2023-05-20T02:42:37;14.20;78.60
26707;DHT22;14319;49.422;10.934;2023-05-20T02:44:38;14.20;79.10
26707;DHT22;14319;49.422;10.934;2023-05-20T02:46:38;14.20;78.50
26707;DHT22;14319;49.422;10.934;2023-05-20T02:48:39;14.20;78.70
26707;DHT22;14319;49.422;10.934;2023-05-20T02:50:40;14.10;78.90
26707;DHT22;14319;49.422;10.934;2023-05-20T02:52:41;14.10;79.70
26707;DHT22;14319;49.422;10.934;2023-05-20T02:54:42;14.10;79.70
26707;DHT22;14319;49.422;10.934;2023-05-20T02:56:43;14.00;79.20
26707;DHT22;14319;49.422;10.934;2023-05-20T02:58:43;14.10;79.40
26707;DHT22;14319;49.422;10.934;2023-05-20T03:00:44;14.20;79.10
26707;DHT22;14319;49.422;10.934;2023-05-20T03:02:44;14.10;79.40
26707;DHT22;14319;49.422;10.934;2023-05-20T03:04:45;14.20;79.00
26707;DHT22;14319;49.422;10.934;2023-05-20T03:06:47;14.20;78.60
26707;DHT22;14319;49.422;10.934;2023-05-20T03:08:49;14.20;78.80
26707;DHT22;14319;49.422;10.934;2023-05-20T03:10:50;14.10;79.00
26707;DHT22;14319;49.422;10.934;2023-05-20T03:12:51;14.10;79.20
26707;DHT22;14319;49.422;10.934;2023-05-20T03:14:51;14.10;79.40
26707;DHT22;14319;49.422;10.934;2023-05-20T03:16:54;14.10;79.80
26707;DHT22;14319;49.422;10.934;2023-05-20T03:18:55;14.10;79.10
26707;DHT22;14319;49.422;10.934;2023-05-20T03:20:56;14.10;79.50
26707;DHT22;14319;49.422;10.934;2023-05-20T03:22:57;14.20;79.40
26707;DHT22;14319;49.422;10.934;2023-05-20T03:24:58;14.10;79.70
26707;DHT22;14319;49.422;10.934;2023-05-20T03:27:01;13.90;79.70
26707;DHT22;14319;49.422;10.934;2023-05-20T03:29:03;14.00;79.90
26707;DHT22;14319;49.422;10.934;2023-05-20T03:31:04;14.00;79.30
26707;DHT22;14319;49.422;10.934;2023-05-20T03:33:06;14.00;79.30
26707;DHT22;14319;49.422;10.934;2023-05-20T03:35:07;14.10;79.60
26707;DHT22;14319;49.422;10.934;2023-05-20T03:37:09;14.10;79.90
26707;DHT22;14319;49.422;10.934;2023-05-20T03:39:09;14.00;79.70
26707;DHT22;14319;49.422;10.934;2023-05-20T03:41:10;14.10;79.80
26707;DHT22;14319;49.422;10.934;2023-05-20T03:43:11;14.10;79.90
26707;DHT22;14319;49.422;10.934;2023-05-20T03:45:14;14.10;79.80
26707;DHT22;14319;49.422;10.934;2023-05-20T03:47:37;14.10;80.50
26707;DHT22;14319;49.422;10.934;2023-05-20T03:49:39;14.10;79.80
26707;DHT22;14319;49.422;10.934;2023-05-20T03:51:40;14.10;80.10
26707;DHT22;14319;49.422;10.934;2023-05-20T03:53:45;14.10;80.10
26707;DHT22;14319;49.422;10.934;2023-05-20T03:55:45;14.10;80.10
26707;DHT22;14319;49.422;10.934;2023-05-20T03:57:47;13.90;80.10
26707;DHT22;14319;49.422;10.934;2023-05-20T03:59:48;14.00;80.60
26707;DHT22;14319;49.422;10.934;2023-05-20T04:01:48;14.00;80.20
26707;DHT22;14319;49.422;10.934;2023-05-20T04:03:49;14.00;80.00
26707;DHT22;14319;49.422;10.934;2023-05-20T04:05:50;14.10;80.10
26707;DHT22;14319;49.422;10.934;2023-05-20T04:07:54;14.10;79.70
26707;DHT22;14319;49.422;10.934;2023-05-20T04:09:57;14.10;79.80
26707;DHT22;14319;49.422;10.934;2023-05-20T04:11:58;14.10;79.70
26707;DHT22;14319;49.422;10.934;2023-05-20T04:13:59;14.10;80.30
26707;DHT22;14319;49.422;10.934;2023-05-20T04:16:00;14.10;80.20
26707;DHT22;14319;49.422;10.934;2023-05-20T04:18:02;14.00;80.10
26707;DHT22;14319;49.422;10.934;2023-05-20T04:20:03;14.00;80.60
26707;DHT22;14319;49.422;10.934;2023-05-20T04:22:07;14.10;80.70
26707;DHT22;14319;49.422;10.934;2023-05-20T04:24:07;14.10;80.40
26707;DHT22;14319;49.422;10.934;2023-05-20T04:26:08;14.10;80.20
26707;DHT22;14319;49.422;10.934;2023-05-20T04:28:09;14.10;79.90
26707;DHT22;14319;49.422;10.934;2023-05-20T04:30:10;14.10;79.90
26707;DHT22;14319;49.422;10.934;2023-05-20T04:32:16;14.10;80.00
26707;DHT22;14319;49.422;10.934;2023-05-20T04:34:18;14.10;80.30
26707;DHT22;14319;49.422;10.934;2023-05-20T04:36:19;14.00;80.70
26707;DHT22;14319;49.422;10.934;2023-05-20T04:38:20;14.10;80.90
26707;DHT22;14319;49.422;10.934;2023-05-20T04:40:23;14.10;81.00
26707;DHT22;14319;49.422;10.934;2023-05-20T04:42:23;14.10;80.10
26707;DHT22;14319;49.422;10.934;2023-05-20T04:44:24;14.20;80.40
26707;DHT22;14319;49.422;10.934;2023-05-20T04:46:26;14.10;80.20
26707;DHT22;14319;49.422;10.934;2023-05-20T04:48:27;14.10;80.50
26707;DHT22;14319;49.422;10.934;2023-05-20T04:50:28;14.20;80.10
26707;DHT22;14319;49.422;10.934;2023-05-20T04:52:28;14.20;80.00
26707;DHT22;14319;49.422;10.934;2023-05-20T04:54:30;14.30;80.40
26707;DHT22;14319;49.422;10.934;2023-05-20T04:56:32;14.30;80.20
26707;DHT22;14319;49.422;10.934;2023-05-20T04:58:33;14.30;80.00
26707;DHT22;14319;49.422;10.934;2023-05-20T05:00:33;14.30;80.10
26707;DHT22;14319;49.422;10.934;2023-05-20T05:02:35;14.30;80.00
26707;DHT22;14319;49.422;10.934;2023-05-20T05:04:36;14.20;80.20
26707;DHT22;14319;49.422;10.934;2023-05-20T05:06:37;14.20;80.20
26707;DHT22;14319;49.422;10.934;2023-05-20T05:08:38;14.10;81.10
26707;DHT22;14319;49.422;10.934;2023-05-20T05:10:39;14.10;81.20
26707;DHT22;14319;49.422;10.934;2023-05-20T05:12:39;14.10;80.40
26707;DHT22;14319;49.422;10.934;2023-05-20T05:14:40;14.10;80.50
26707;DHT22;14319;49.422;10.934;2023-05-20T05:16:40;14.10;80.60
26707;DHT22;14319;49.422;10.934;2023-05-20T05:18:42;14.10;81.00
26707;DHT22;14319;49.422;10.934;2023-05-20T05:20:43;14.20;80.90
26707;DHT22;14319;49.422;10.934;2023-05-20T05:22:44;14.10;80.70
26707;DHT22;14319;49.422;10.934;2023-05-20T05:24:45;14.20;81.10
26707;DHT22;14319;49.422;10.934;2023-05-20T05:26:45;14.20;80.80
26707;DHT22;14319;49.422;10.934;2023-05-20T05:28:46;14.30;81.00
26707;DHT22;14319;49.422;10.934;2023-05-20T05:30:47;14.30;80.10
26707;DHT22;14319;49.422;10.934;2023-05-20T05:32:48;14.30;80.80
26707;DHT22;14319;49.422;10.934;2023-05-20T05:34:48;14.20;80.80
26707;DHT22;14319;49.422;10.934;2023-05-20T05:36:49;14.20;80.90
26707;DHT22;14319;49.422;10.934;2023-05-20T05:38:50;14.30;80.90
26707;DHT22;14319;49.422;10.934;2023-05-20T05:40:50;14.30;81.10
26707;DHT22;14319;49.422;10.934;2023-05-20T05:42:51;14.30;81.10
26707;DHT22;14319;49.422;10.934;2023-05-20T05:44:52;14.30;80.90
26707;DHT22;14319;49.422;10.934;2023-05-20T05:46:54;14.40;80.80
26707;DHT22;14319;49.422;10.934;2023-05-20T05:48:55;14.40;80.50
26707;DHT22;14319;49.422;10.934;2023-05-20T05:50:58;14.40;80.00
26707;DHT22;14319;49.422;10.934;2023-05-20T05:52:59;14.50;80.20
26707;DHT22;14319;49.422;10.934;2023-05-20T05:55:00;14.60;80.20
26707;DHT22;14319;49.422;10.934;2023-05-20T05:57:01;14.60;79.90
26707;DHT22;14319;49.422;10.934;2023-05-20T05:59:04;14.60;79.70
26707;DHT22;14319;49.422;10.934;2023-05-20T06:01:05;14.70;79.50
26707;DHT22;14319;49.422;10.934;2023-05-20T06:03:06;14.80;79.50
26707;DHT22;14319;49.422;10.934;2023-05-20T06:05:10;14.80;78.90
26707;DHT22;14319;49.422;10.934;2023-05-20T06:07:11;14.90;79.70
26707;DHT22;14319;49.422;10.934;2023-05-20T06:09:11;14.90;79.00
26707;DHT22;14319;49.422;10.934;2023-05-20T06:11:12;14.80;79.00
26707;DHT22;14319;49.422;10.934;2023-05-20T06:13:13;14.80;79.00
26707;DHT22;14319;49.422;10.934;2023-05-20T06:15:13;14.80;78.90
26707;DHT22;14319;49.422;10.934;2023-05-20T06:17:15;14.80;79.20
26707;DHT22;14319;49.422;10.934;2023-05-20T06:19:15;14.80;79.10
26707;DHT22;14319;49.422;10.934;2023-05-20T06:21:16;14.90;78.20
26707;DHT22;14319;49.422;10.934;2023-05-20T06:23:16;15.00;77.90
26707;DHT22;14319;49.422;10.934;2023-05-20T06:25:27;15.00;77.90
26707;DHT22;14319;49.422;10.934;2023-05-20T06:27:28;15.00;78.50
26707;DHT22;14319;49.422;10.934;2023-05-20T06:29:29;14.90;79.00
26707;DHT22;14319;49.422;10.934;2023-05-20T06:31:30;14.90;79.30
26707;DHT22;14319;49.422;10.934;2023-05-20T06:33:31;15.00;78.20
26707;DHT22;14319;49.422;10.934;2023-05-20T06:35:35;15.10;78.70
26707;DHT22;14319;49.422;10.934;2023-05-20T06:37:37;15.20;77.30
26707;DHT22;14319;49.422;10.934;2023-05-20T06:39:39;15.20;76.60
26707;DHT22;14319;49.422;10.934;2023-05-20T06:41:41;15.20;76.40
26707;DHT22;14319;49.422;10.934;2023-05-20T06:43:43;15.20;76.70
26707;DHT22;14319;49.422;10.934;2023-05-20T06:46:03;15.20;77.50
26707;DHT22;14319;49.422;10.934;2023-05-20T06:48:13;15.30;77.80
26707;DHT22;14319;49.422;10.934;2023-05-20T06:50:13;15.30;77.40
26707;DHT22;14319;49.422;10.934;2023-05-20T06:52:14;15.30;78.20
26707;DHT22;14319;49.422;10.934;2023-05-20T06:54:15;15.30;78.00
26707;DHT22;14319;49.422;10.934;2023-05-20T06:56:16;15.40;76.90
26707;DHT22;14319;49.422;10.934;2023-05-20T06:58:17;15.30;77.60
26707;DHT22;14319;49.422;10.934;2023-05-20T07:00:18;15.40;77.30
26707;DHT22;14319;49.422;10.934;2023-05-20T07:02:20;15.50;77.10
26707;DHT22;14319;49.422;10.934;2023-05-20T07:04:21;15.60;76.20
26707;DHT22;14319;49.422;10.934;2023-05-20T07:06:22;15.70;75.80
26707;DHT22;14319;49.422;10.934;2023-05-20T07:08:23;15.70;75.20
26707;DHT22;14319;49.422;10.934;2023-05-20T07:10:24;15.70;75.20
26707;DHT22;14319;49.422;10.934;2023-05-20T07:12:25;15.70;75.80
26707;DHT22;14319;49.422;10.934;2023-05-20T07:14:25;15.80;74.30
26707;DHT22;14319;49.422;10.934;2023-05-20T07:16:26;15.80;74.40
26707;DHT22;14319;49.422;10.934;2023-05-20T07:18:29;15.80;75.20
26707;DHT22;14319;49.422;10.934;2023-05-20T07:20:30;15.70;74.50
26707;DHT22;14319;49.422;10.934;2023-05-20T07:22:33;15.70;75.00
26707;DHT22;14319;49.422;10.934;2023-05-20T07:24:47;15.80;75.70
26707;DHT22;14319;49.422;10.934;2023-05-20T07:26:48;15.70;75.10
26707;DHT22;14319;49.422;10.934;2023-05-20T07:28:49;15.80;74.40
26707;DHT22;14319;49.422;10.934;2023-05-20T07:30:52;15.90;75.10
26707;DHT22;14319;49.422;10.934;2023-05-20T07:32:56;15.90;74.60
26707;DHT22;14319;49.422;10.934;2023-05-20T07:34:57;15.90;75.00
26707;DHT22;14319;49.422;10.934;2023-05-20T07:36:59;15.90;76.10
26707;DHT22;14319;49.422;10.934;2023-05-20T07:38:59;16.00;76.00
26707;DHT22;14319;49.422;10.934;2023-05-20T07:41:00;16.20;74.60
26707;DHT22;14319;49.422;10.934;2023-05-20T07:43:03;16.30;73.20
26707;DHT22;14319;49.422;10.934;2023-05-20T07:45:04;16.30;73.80
26707;DHT22;14319;49.422;10.934;2023-05-20T07:47:06;16.40;73.30
26707;DHT22;14319;49.422;10.934;2023-05-20T07:49:07;16.40;72.60
26707;DHT22;14319;49.422;10.934;2023-05-20T07:51:09;16.50;74.00
26707;DHT22;14319;49.422;10.934;2023-05-20T07:53:11;16.40;75.20
26707;DHT22;14319;49.422;10.934;2023-05-20T07:55:12;16.40;72.90
26707;DHT22;14319;49.422;10.934;2023-05-20T07:57:13;16.50;72.30
26707;DHT22;14319;49.422;10.934;2023-05-20T07:59:14;16.60;72.40
26707;DHT22;14319;49.422;10.934;2023-05-20T08:01:19;16.60;72.50
26707;DHT22;14319;49.422;10.934;2023-05-20T08:03:19;16.60;73.00
26707;DHT22;14319;49.422;10.934;2023-05-20T08:05:32;16.50;71.90
26707;DHT22;14319;49.422;10.934;2023-05-20T08:07:33;16.50;72.70
26707;DHT22;14319;49.422;10.934;2023-05-20T08:09:34;16.60;73.20
26707;DHT22;14319;49.422;10.934;2023-05-20T08:11:34;16.80;73.60
26707;DHT22;14319;49.422;10.934;2023-05-20T08:13:35;16.80;72.60
26707;DHT22;14319;49.422;10.934;2023-05-20T08:15:36;16.80;72.20
26707;DHT22;14319;49.422;10.934;2023-05-20T08:17:37;16.80;72.30
26707;DHT22;14319;49.422;10.934;2023-05-20T08:19:38;16.90;72.10
26707;DHT22;14319;49.422;10.934;2023-05-20T08:21:39;16.90;72.40
26707;DHT22;14319;49.422;10.934;2023-05-20T08:23:40;17.00;72.80
26707;DHT22;14319;49.422;10.934;2023-05-20T08:25:41;17.00;72.00
26707;DHT22;14319;49.422;10.934;2023-05-20T08:27:42;17.10;70.80
26707;DHT22;14319;49.422;10.934;2023-05-20T08:29:44;17.20;72.10
26707;DHT22;14319;49.422;10.934;2023-05-20T08:31:44;17.20;70.60
26707;DHT22;14319;49.422;10.934;2023-05-20T08:33:46;17.20;70.20
26707;DHT22;14319;49.422;10.934;2023-05-20T08:35:47;17.10;70.50
26707;DHT22;14319;49.422;10.934;2023-05-20T08:37:48;17.20;71.10
26707;DHT22;14319;49.422;10.934;2023-05-20T08:39:49;17.40;72.10
26707;DHT22;14319;49.422;10.934;2023-05-20T08:41:49;17.50;71.70
26707;DHT22;14319;49.422;10.934;2023-05-20T08:43:51;17.50;70.40
26707;DHT22;14319;49.422;10.934;2023-05-20T08:45:53;17.60;69.80
26707;DHT22;14319;49.422;10.934;2023-05-20T08:47:55;17.70;71.00
26707;DHT22;14319;49.422;10.934;2023-05-20T08:49:57;17.70;69.80
26707;DHT22;14319;49.422;10.934;2023-05-20T08:51:59;17.70;71.40
26707;DHT22;14319;49.422;10.934;2023-05-20T08:54:02;17.80;70.20
26707;DHT22;14319;49.422;10.934;2023-05-20T08:56:02;17.90;68.50
26707;DHT22;14319;49.422;10.934;2023-05-20T08:58:03;17.90;68.80
26707;DHT22;14319;49.422;10.934;2023-05-20T09:00:05;17.80;68.20
26707;DHT22;14319;49.422;10.934;2023-05-20T09:02:10;17.90;68.40
26707;DHT22;14319;49.422;10.934;2023-05-20T09:04:10;18.00;68.10
26707;DHT22;14319;49.422;10.934;2023-05-20T09:06:16;18.10;68.50
26707;DHT22;14319;49.422;10.934;2023-05-20T09:08:23;18.10;67.80
26707;DHT22;14319;49.422;10.934;2023-05-20T09:10:25;18.00;69.10
26707;DHT22;14319;49.422;10.934;2023-05-20T09:12:26;18.00;69.50
26707;DHT22;14319;49.422;10.934;2023-05-20T09:14:27;18.00;67.30
26707;DHT22;14319;49.422;10.934;2023-05-20T09:16:28;18.10;68.30
26707;DHT22;14319;49.422;10.934;2023-05-20T09:18:29;18.20;68.90
26707;DHT22;14319;49.422;10.934;2023-05-20T09:20:33;18.20;67.70
26707;DHT22;14319;49.422;10.934;2023-05-20T09:22:34;18.20;68.50
26707;DHT22;14319;49.422;10.934;2023-05-20T09:24:34;18.20;68.00
26707;DHT22;14319;49.422;10.934;2023-05-20T09:26:35;18.30;67.50
26707;DHT22;14319;49.422;10.934;2023-05-20T09:28:36;18.60;66.70
26707;DHT22;14319;49.422;10.934;2023-05-20T09:30:38;18.60;67.90
26707;DHT22;14319;49.422;10.934;2023-05-20T09:32:39;18.70;67.90
26707;DHT22;14319;49.422;10.934;2023-05-20T09:34:40;18.80;66.90
26707;DHT22;14319;49.422;10.934;2023-05-20T09:36:43;18.90;66.30
26707;DHT22;14319;49.422;10.934;2023-05-20T09:38:44;19.00;66.80
26707;DHT22;14319;49.422;10.934;2023-05-20T09:40:47;19.10;66.10
26707;DHT22;14319;49.422;10.934;2023-05-20T09:43:02;19.20;65.00
26707;DHT22;14319;49.422;10.934;2023-05-20T09:45:04;19.30;64.20
26707;DHT22;14319;49.422;10.934;2023-05-20T09:47:06;19.40;64.70
26707;DHT22;14319;49.422;10.934;2023-05-20T09:49:10;19.60;64.60
26707;DHT22;14319;49.422;10.934;2023-05-20T09:51:12;19.60;64.10
26707;DHT22;14319;49.422;10.934;2023-05-20T09:53:14;19.70;64.10
26707;DHT22;14319;49.422;10.934;2023-05-20T09:55:17;19.80;65.00
26707;DHT22;14319;49.422;10.934;2023-05-20T09:57:18;19.90;62.40
26707;DHT22;14319;49.422;10.934;2023-05-20T09:59:20;20.00;61.90
26707;DHT22;14319;49.422;10.934;2023-05-20T10:01:21;20.00;63.00
26707;DHT22;14319;49.422;10.934;2023-05-20T10:03:22;20.00;61.10
26707;DHT22;14319;49.422;10.934;2023-05-20T10:05:34;20.00;61.60
26707;DHT22;14319;49.422;10.934;2023-05-20T10:07:52;20.00;63.10
26707;DHT22;14319;49.422;10.934;2023-05-20T10:12:35;20.10;62.80
26707;DHT22;14319;49.422;10.934;2023-05-20T10:14:45;20.20;62.10
26707;DHT22;14319;49.422;10.934;2023-05-20T10:19:27;20.10;63.10
26707;DHT22;14319;49.422;10.934;2023-05-20T10:21:31;20.20;64.10
26707;DHT22;14319;49.422;10.934;2023-05-20T10:23:32;20.20;62.40
26707;DHT22;14319;49.422;10.934;2023-05-20T10:25:32;20.20;61.10
26707;DHT22;14319;49.422;10.934;2023-05-20T10:27:43;20.20;62.50
26707;DHT22;14319;49.422;10.934;2023-05-20T10:29:55;20.30;62.60
26707;DHT22;14319;49.422;10.934;2023-05-20T10:31:56;20.20;62.40
26707;DHT22;14319;49.422;10.934;2023-05-20T10:33:57;20.10;62.90
26707;DHT22;14319;49.422;10.934;2023-05-20T10:35:59;20.10;62.10
26707;DHT22;14319;49.422;10.934;2023-05-20T10:38:10;20.20;62.80
26707;DHT22;14319;49.422;10.934;2023-05-20T10:40:13;20.20;63.30
26707;DHT22;14319;49.422;10.934;2023-05-20T10:42:14;20.20;62.60
26707;DHT22;14319;49.422;10.934;2023-05-20T10:44:15;20.20;63.90
26707;DHT22;14319;49.422;10.934;2023-05-20T10:46:18;20.30;62.40
26707;DHT22;14319;49.422;10.934;2023-05-20T10:48:29;20.40;62.20
26707;DHT22;14319;49.422;10.934;2023-05-20T10:50:35;20.40;62.80
26707;DHT22;14319;49.422;10.934;2023-05-20T10:52:36;20.60;62.50
26707;DHT22;14319;49.422;10.934;2023-05-20T10:54:43;20.70;61.90
26707;DHT22;14319;49.422;10.934;2023-05-20T10:56:51;20.90;61.50
26707;DHT22;14319;49.422;10.934;2023-05-20T10:58:53;21.00;63.80
26707;DHT22;14319;49.422;10.934;2023-05-20T11:00:54;21.10;60.40
26707;DHT22;14319;49.422;10.934;2023-05-20T11:02:55;21.10;59.20
26707;DHT22;14319;49.422;10.934;2023-05-20T11:04:56;21.10;60.50
26707;DHT22;14319;49.422;10.934;2023-05-20T11:07:00;21.20;59.60
26707;DHT22;14319;49.422;10.934;2023-05-20T11:09:05;21.10;59.00
26707;DHT22;14319;49.422;10.934;2023-05-20T11:11:06;21.10;58.80
26707;DHT22;14319;49.422;10.934;2023-05-20T11:13:07;21.00;61.00
26707;DHT22;14319;49.422;10.934;2023-05-20T11:15:10;21.00;59.00
26707;DHT22;14319;49.422;10.934;2023-05-20T11:17:12;21.10;59.00
26707;DHT22;14319;49.422;10.934;2023-05-20T11:19:16;21.10;60.30
26707;DHT22;14319;49.422;10.934;2023-05-20T11:21:18;20.90;59.70
26707;DHT22;14319;49.422;10.934;2023-05-20T11:23:19;21.00;60.80
26707;DHT22;14319;49.422;10.934;2023-05-20T11:25:22;20.90;60.50
26707;DHT22;14319;49.422;10.934;2023-05-20T11:27:23;21.00;59.60
26707;DHT22;14319;49.422;10.934;2023-05-20T11:29:25;21.00;60.10
26707;DHT22;14319;49.422;10.934;2023-05-20T11:31:26;21.10;59.60
26707;DHT22;14319;49.422;10.934;2023-05-20T11:33:28;21.20;60.50
26707;DHT22;14319;49.422;10.934;2023-05-20T11:35:31;21.40;58.40
26707;DHT22;14319;49.422;10.934;2023-05-20T11:37:35;21.40;59.60
26707;DHT22;14319;49.422;10.934;2023-05-20T11:39:36;21.40;59.40
26707;DHT22;14319;49.422;10.934;2023-05-20T11:41:37;21.40;58.70
26707;DHT22;14319;49.422;10.934;2023-05-20T11:43:38;21.50;58.80
26707;DHT22;14319;49.422;10.934;2023-05-20T11:45:42;21.40;58.50
26707;DHT22;14319;49.422;10.934;2023-05-20T11:47:43;21.50;58.00
26707;DHT22;14319;49.422;10.934;2023-05-20T11:49:47;21.40;60.40
26707;DHT22;14319;49.422;10.934;2023-05-20T11:51:48;21.40;58.30
26707;DHT22;14319;49.422;10.934;2023-05-20T11:53:49;21.30;58.60
26707;DHT22;14319;49.422;10.934;2023-05-20T11:55:57;21.30;59.80
26707;DHT22;14319;49.422;10.934;2023-05-20T11:57:59;21.40;59.50
26707;DHT22;14319;49.422;10.934;2023-05-20T12:00:00;21.50;60.00
26707;DHT22;14319;49.422;10.934;2023-05-20T12:02:00;21.60;59.60
26707;DHT22;14319;49.422;10.934;2023-05-20T12:04:01;21.80;59.20
26707;DHT22;14319;49.422;10.934;2023-05-20T12:06:02;21.80;57.90
26707;DHT22;14319;49.422;10.934;2023-05-20T12:08:03;21.80;59.60
26707;DHT22;14319;49.422;10.934;2023-05-20T12:10:05;21.90;58.30
26707;DHT22;14319;49.422;10.934;2023-05-20T12:12:06;21.90;56.60
26707;DHT22;14319;49.422;10.934;2023-05-20T12:14:07;22.00;57.80
26707;DHT22;14319;49.422;10.934;2023-05-20T12:16:08;22.00;58.10
26707;DHT22;14319;49.422;10.934;2023-05-20T12:18:09;22.10;59.70
26707;DHT22;14319;49.422;10.934;2023-05-20T12:20:12;22.10;57.80
26707;DHT22;14319;49.422;10.934;2023-05-20T12:22:13;22.10;58.40
26707;DHT22;14319;49.422;10.934;2023-05-20T12:24:14;22.10;58.30
26707;DHT22;14319;49.422;10.934;2023-05-20T12:26:14;22.10;59.20
26707;DHT22;14319;49.422;10.934;2023-05-20T12:28:15;22.20;58.70
26707;DHT22;14319;49.422;10.934;2023-05-20T12:30:18;22.20;57.70
26707;DHT22;14319;49.422;10.934;2023-05-20T12:32:19;22.10;57.70
26707;DHT22;14319;49.422;10.934;2023-05-20T12:34:20;22.10;58.50
26707;DHT22;14319;49.422;10.934;2023-05-20T12:36:20;22.10;58.20
26707;DHT22;14319;49.422;10.934;2023-05-20T12:38:21;22.10;57.90
26707;DHT22;14319;49.422;10.934;2023-05-20T12:40:22;22.10;58.80
26707;DHT22;14319;49.422;10.934;2023-05-20T12:42:22;22.20;59.20